sensor_id;sensor_type;location;lat;lon;timestamp;pressure;altitude;pressure_sealevel;temperature;humidity
28306;BME280;7516;43.570;1.448;2024-03-29T00:01:45;97431.88;;;12.88;87.20
28306;BME280;7516;43.570;1.448;2024-03-29T00:04:11;97423.44;;;12.86;87.12
28306;BME280;7516;43.570;1.448;2024-03-29T00:06:38;97422.66;;;12.85;87.38
28306;BME280;7516;43.570;1.448;2024-03-29T00:09:04;97421.06;;;12.84;87.82
28306;BME280;7516;43.570;1.448;2024-03-29T00:11:31;97418.50;;;12.89;86.62
28306;BME280;7516;43.570;1.448;2024-03-29T00:13:58;97406.97;;;12.90;86.19
28306;BME280;7516;43.570;1.448;2024-03-29T00:16:25;97426.72;;;12.93;85.67
28306;BME280;7516;43.570;1.448;2024-03-29T00:18:52;97442.22;;;12.94;85.71
28306;BME280;7516;43.570;1.448;2024-03-29T00:21:19;97448.28;;;12.95;85.91
28306;BME280;7516;43.570;1.448;2024-03-29T00:23:45;97441.69;;;12.92;86.44
28306;BME280;7516;43.570;1.448;2024-03-29T00:26:12;97430.38;;;12.92;85.61
28306;BME280;7516;43.570;1.448;2024-03-29T00:28:39;97439.34;;;12.96;86.14
28306;BME280;7516;43.570;1.448;2024-03-29T00:31:05;97426.75;;;12.98;86.12
28306;BME280;7516;43.570;1.448;2024-03-29T00:33:34;97425.97;;;12.97;86.17
28306;BME280;7516;43.570;1.448;2024-03-29T00:36:01;97431.22;;;12.97;86.18
28306;BME280;7516;43.570;1.448;2024-03-29T00:38:27;97426.28;;;13.01;85.85
28306;BME280;7516;43.570;1.448;2024-03-29T00:40:54;97439.97;;;13.03;86.00
28306;BME280;7516;43.570;1.448;2024-03-29T00:43:20;97442.06;;;13.01;85.46
28306;BME280;7516;43.570;1.448;2024-03-29T00:45:47;97414.19;;;13.00;85.21
28306;BME280;7516;43.570;1.448;2024-03-29T00:48:14;97396.56;;;13.00;85.21
28306;BME280;7516;43.570;1.448;2024-03-29T00:50:42;97394.00;;;13.05;85.22
28306;BME280;7516;43.570;1.448;2024-03-29T00:53:08;97411.59;;;13.05;85.03
28306;BME280;7516;43.570;1.448;2024-03-29T00:55:35;97419.97;;;13.02;84.98
28306;BME280;7516;43.570;1.448;2024-03-29T00:58:01;97409.72;;;13.00;86.53
28306;BME280;7516;43.570;1.448;2024-03-29T01:00:28;97420.84;;;13.07;85.78
28306;BME280;7516;43.570;1.448;2024-03-29T01:02:54;97439.00;;;13.09;85.56
28306;BME280;7516;43.570;1.448;2024-03-29T01:05:21;97422.72;;;13.12;86.53
28306;BME280;7516;43.570;1.448;2024-03-29T01:07:49;97419.28;;;13.11;85.66
28306;BME280;7516;43.570;1.448;2024-03-29T01:10:16;97421.13;;;13.11;85.47
28306;BME280;7516;43.570;1.448;2024-03-29T01:12:43;97415.88;;;13.11;86.08
28306;BME280;7516;43.570;1.448;2024-03-29T01:15:09;97398.53;;;13.10;85.54
28306;BME280;7516;43.570;1.448;2024-03-29T01:17:36;97399.06;;;13.12;85.70
28306;BME280;7516;43.570;1.448;2024-03-29T01:20:03;97385.44;;;13.15;85.32
28306;BME280;7516;43.570;1.448;2024-03-29T01:22:30;97389.72;;;13.21;85.88
28306;BME280;7516;43.570;1.448;2024-03-29T01:24:57;97378.16;;;13.22;85.44
28306;BME280;7516;43.570;1.448;2024-03-29T01:27:24;97382.38;;;13.23;85.80
28306;BME280;7516;43.570;1.448;2024-03-29T01:29:51;97379.75;;;13.23;86.12
28306;BME280;7516;43.570;1.448;2024-03-29T01:32:17;97389.03;;;13.31;86.08
28306;BME280;7516;43.570;1.448;2024-03-29T01:34:44;97395.66;;;13.33;85.95
28306;BME280;7516;43.570;1.448;2024-03-29T01:37:11;97382.81;;;13.37;84.90
28306;BME280;7516;43.570;1.448;2024-03-29T01:39:37;97385.16;;;13.38;85.38
28306;BME280;7516;43.570;1.448;2024-03-29T01:42:06;97379.91;;;13.38;86.47
28306;BME280;7516;43.570;1.448;2024-03-29T01:44:33;97375.44;;;13.39;85.70
28306;BME280;7516;43.570;1.448;2024-03-29T01:47:00;97369.38;;;13.38;86.14
28306;BME280;7516;43.570;1.448;2024-03-29T01:49:30;97377.03;;;13.40;85.83
28306;BME280;7516;43.570;1.448;2024-03-29T01:51:58;97377.81;;;13.40;86.59
28306;BME280;7516;43.570;1.448;2024-03-29T01:54:26;97391.06;;;13.45;87.22
28306;BME280;7516;43.570;1.448;2024-03-29T01:56:53;97401.81;;;13.44;87.54
28306;BME280;7516;43.570;1.448;2024-03-29T01:59:23;97395.81;;;13.48;87.49
28306;BME280;7516;43.570;1.448;2024-03-29T02:01:51;97397.72;;;13.53;87.42
28306;BME280;7516;43.570;1.448;2024-03-29T02:04:18;97393.47;;;13.52;87.67
28306;BME280;7516;43.570;1.448;2024-03-29T02:06:46;97392.13;;;13.49;88.60
28306;BME280;7516;43.570;1.448;2024-03-29T02:09:14;97393.72;;;13.50;89.25
28306;BME280;7516;43.570;1.448;2024-03-29T02:11:41;97392.13;;;13.49;89.11
28306;BME280;7516;43.570;1.448;2024-03-29T02:14:09;97390.53;;;13.48;89.42
28306;BME280;7516;43.570;1.448;2024-03-29T02:16:38;97412.94;;;13.51;89.72
28306;BME280;7516;43.570;1.448;2024-03-29T02:19:06;97406.41;;;13.53;89.37
28306;BME280;7516;43.570;1.448;2024-03-29T02:21:35;97410.59;;;13.54;89.90
28306;BME280;7516;43.570;1.448;2024-03-29T02:24:07;97414.81;;;13.55;90.01
28306;BME280;7516;43.570;1.448;2024-03-29T02:26:35;97416.41;;;13.56;90.33
28306;BME280;7516;43.570;1.448;2024-03-29T02:29:07;97412.69;;;13.52;90.88
28306;BME280;7516;43.570;1.448;2024-03-29T02:31:35;97410.31;;;13.51;91.63
28306;BME280;7516;43.570;1.448;2024-03-29T02:34:03;97421.84;;;13.45;92.00
28306;BME280;7516;43.570;1.448;2024-03-29T02:36:30;97417.53;;;13.39;92.62
28306;BME280;7516;43.570;1.448;2024-03-29T02:38:56;97425.19;;;13.40;92.57
28306;BME280;7516;43.570;1.448;2024-03-29T02:41:25;97407.22;;;13.32;93.03
28306;BME280;7516;43.570;1.448;2024-03-29T02:43:56;97405.38;;;13.33;94.16
28306;BME280;7516;43.570;1.448;2024-03-29T02:46:24;97416.16;;;13.31;94.35
28306;BME280;7516;43.570;1.448;2024-03-29T02:48:52;97409.03;;;13.32;95.01
28306;BME280;7516;43.570;1.448;2024-03-29T02:51:18;97415.06;;;13.27;95.13
28306;BME280;7516;43.570;1.448;2024-03-29T02:53:46;97413.72;;;13.25;95.23
28306;BME280;7516;43.570;1.448;2024-03-29T02:56:13;97432.13;;;13.25;96.18
28306;BME280;7516;43.570;1.448;2024-03-29T02:58:46;97432.84;;;13.20;96.22
28306;BME280;7516;43.570;1.448;2024-03-29T03:01:12;97441.47;;;13.15;96.47
28306;BME280;7516;43.570;1.448;2024-03-29T03:03:40;97424.09;;;13.14;97.28
28306;BME280;7516;43.570;1.448;2024-03-29T03:06:06;97425.94;;;13.14;97.35
28306;BME280;7516;43.570;1.448;2024-03-29T03:08:34;97432.94;;;13.08;97.80
28306;BME280;7516;43.570;1.448;2024-03-29T03:11:19;97447.31;;;13.01;97.84
28306;BME280;7516;43.570;1.448;2024-03-29T03:13:48;97451.28;;;13.03;98.47
28306;BME280;7516;43.570;1.448;2024-03-29T03:16:15;97460.47;;;13.01;98.23
28306;BME280;7516;43.570;1.448;2024-03-29T03:18:43;97470.91;;;12.96;98.07
28306;BME280;7516;43.570;1.448;2024-03-29T03:21:09;97466.63;;;12.90;98.87
28306;BME280;7516;43.570;1.448;2024-03-29T03:23:37;97453.72;;;12.88;98.41
28306;BME280;7516;43.570;1.448;2024-03-29T03:26:03;97441.31;;;12.84;98.80
28306;BME280;7516;43.570;1.448;2024-03-29T03:28:31;97445.88;;;12.71;98.61
28306;BME280;7516;43.570;1.448;2024-03-29T03:30:59;97447.31;;;12.62;99.57
28306;BME280;7516;43.570;1.448;2024-03-29T03:33:26;97449.31;;;12.55;100.00
28306;BME280;7516;43.570;1.448;2024-03-29T03:35:53;97447.72;;;12.54;100.00
28306;BME280;7516;43.570;1.448;2024-03-29T03:38:20;97443.81;;;12.57;100.00
28306;BME280;7516;43.570;1.448;2024-03-29T03:40:47;97431.88;;;12.49;100.00
28306;BME280;7516;43.570;1.448;2024-03-29T03:43:14;97424.50;;;12.46;100.00
28306;BME280;7516;43.570;1.448;2024-03-29T03:45:41;97433.06;;;12.41;100.00
28306;BME280;7516;43.570;1.448;2024-03-29T03:48:12;97440.09;;;12.36;100.00
28306;BME280;7516;43.570;1.448;2024-03-29T03:50:39;97438.91;;;12.27;100.00
28306;BME280;7516;43.570;1.448;2024-03-29T03:53:07;97443.13;;;12.28;100.00
28306;BME280;7516;43.570;1.448;2024-03-29T03:55:36;97453.78;;;12.21;100.00
28306;BME280;7516;43.570;1.448;2024-03-29T03:58:04;97458.25;;;12.21;100.00
28306;BME280;7516;43.570;1.448;2024-03-29T04:00:32;97443.69;;;12.30;100.00
28306;BME280;7516;43.570;1.448;2024-03-29T04:02:59;97440.41;;;12.23;100.00
28306;BME280;7516;43.570;1.448;2024-03-29T04:05:28;97451.06;;;12.16;100.00
28306;BME280;7516;43.570;1.448;2024-03-29T04:07:54;97451.88;;;12.17;100.00
28306;BME280;7516;43.570;1.448;2024-03-29T04:10:22;97438.16;;;12.15;100.00
28306;BME280;7516;43.570;1.448;2024-03-29T04:12:49;97435.16;;;12.06;100.00
28306;BME280;7516;43.570;1.448;2024-03-29T04:15:17;97438.81;;;12.05;100.00
28306;BME280;7516;43.570;1.448;2024-03-29T04:17:44;97442.94;;;12.01;100.00
28306;BME280;7516;43.570;1.448;2024-03-29T04:20:11;97444.78;;;12.00;100.00
28306;BME280;7516;43.570;1.448;2024-03-29T04:22:39;97436.91;;;12.00;100.00
28306;BME280;7516;43.570;1.448;2024-03-29T04:25:07;97431.66;;;12.00;100.00
28306;BME280;7516;43.570;1.448;2024-03-29T04:27:34;97422.56;;;11.91;100.00
28306;BME280;7516;43.570;1.448;2024-03-29T04:30:01;97425.13;;;11.86;100.00
28306;BME280;7516;43.570;1.448;2024-03-29T04:32:28;97442.53;;;11.92;100.00
28306;BME280;7516;43.570;1.448;2024-03-29T04:34:56;97459.31;;;11.91;100.00
28306;BME280;7516;43.570;1.448;2024-03-29T04:37:22;97472.44;;;11.91;100.00
28306;BME280;7516;43.570;1.448;2024-03-29T04:39:51;97485.22;;;11.88;100.00
28306;BME280;7516;43.570;1.448;2024-03-29T04:42:19;97470.78;;;11.85;100.00
28306;BME280;7516;43.570;1.448;2024-03-29T04:44:46;97455.47;;;11.82;100.00
28306;BME280;7516;43.570;1.448;2024-03-29T04:47:13;97464.31;;;11.76;100.00
28306;BME280;7516;43.570;1.448;2024-03-29T04:49:41;97469.97;;;11.73;100.00
28306;BME280;7516;43.570;1.448;2024-03-29T04:52:09;97458.38;;;11.69;100.00
28306;BME280;7516;43.570;1.448;2024-03-29T04:54:36;97461.47;;;11.66;100.00
28306;BME280;7516;43.570;1.448;2024-03-29T04:57:05;97475.84;;;11.63;100.00
28306;BME280;7516;43.570;1.448;2024-03-29T04:59:33;97488.34;;;11.73;100.00
28306;BME280;7516;43.570;1.448;2024-03-29T05:02:00;97479.91;;;11.71;100.00
28306;BME280;7516;43.570;1.448;2024-03-29T05:04:27;97481.88;;;11.64;100.00
28306;BME280;7516;43.570;1.448;2024-03-29T05:06:55;97483.72;;;11.63;100.00
28306;BME280;7516;43.570;1.448;2024-03-29T05:09:23;97483.84;;;11.57;100.00
28306;BME280;7516;43.570;1.448;2024-03-29T05:11:49;97500.28;;;11.52;100.00
28306;BME280;7516;43.570;1.448;2024-03-29T05:14:19;97510.88;;;11.57;100.00
28306;BME280;7516;43.570;1.448;2024-03-29T05:16:48;97510.66;;;11.59;100.00
28306;BME280;7516;43.570;1.448;2024-03-29T05:19:16;97509.50;;;11.55;100.00
28306;BME280;7516;43.570;1.448;2024-03-29T05:21:44;97515.13;;;11.47;100.00
28306;BME280;7516;43.570;1.448;2024-03-29T05:24:11;97508.19;;;11.41;100.00
28306;BME280;7516;43.570;1.448;2024-03-29T05:26:39;97492.78;;;11.44;100.00
28306;BME280;7516;43.570;1.448;2024-03-29T05:29:07;97491.88;;;11.39;100.00
28306;BME280;7516;43.570;1.448;2024-03-29T05:31:36;97476.94;;;11.39;100.00
28306;BME280;7516;43.570;1.448;2024-03-29T05:34:04;97476.06;;;11.34;100.00
28306;BME280;7516;43.570;1.448;2024-03-29T05:36:31;97482.66;;;11.36;100.00
28306;BME280;7516;43.570;1.448;2024-03-29T05:38:58;97484.97;;;11.32;100.00
28306;BME280;7516;43.570;1.448;2024-03-29T05:41:26;97482.69;;;11.24;100.00
28306;BME280;7516;43.570;1.448;2024-03-29T05:43:54;97497.72;;;11.29;100.00
28306;BME280;7516;43.570;1.448;2024-03-29T05:46:21;97495.31;;;11.27;100.00
28306;BME280;7516;43.570;1.448;2024-03-29T05:48:50;97495.91;;;11.29;100.00
28306;BME280;7516;43.570;1.448;2024-03-29T05:51:18;97492.03;;;11.32;100.00
28306;BME280;7516;43.570;1.448;2024-03-29T05:53:45;97500.22;;;11.36;100.00
28306;BME280;7516;43.570;1.448;2024-03-29T05:56:13;97507.72;;;11.44;100.00
28306;BME280;7516;43.570;1.448;2024-03-29T05:58:40;97516.28;;;11.51;100.00
28306;BME280;7516;43.570;1.448;2024-03-29T06:01:08;97520.00;;;11.55;100.00
28306;BME280;7516;43.570;1.448;2024-03-29T06:03:35;97524.00;;;11.57;100.00
28306;BME280;7516;43.570;1.448;2024-03-29T06:06:04;97532.00;;;11.51;100.00
28306;BME280;7516;43.570;1.448;2024-03-29T06:08:33;97524.69;;;11.53;100.00
28306;BME280;7516;43.570;1.448;2024-03-29T06:11:00;97514.75;;;11.55;100.00
28306;BME280;7516;43.570;1.448;2024-03-29T06:13:28;97523.78;;;11.59;100.00
28306;BME280;7516;43.570;1.448;2024-03-29T06:16:16;97540.84;;;11.61;100.00
28306;BME280;7516;43.570;1.448;2024-03-29T06:19:02;97532.28;;;11.66;100.00
28306;BME280;7516;43.570;1.448;2024-03-29T06:21:31;97527.63;;;11.68;100.00
28306;BME280;7516;43.570;1.448;2024-03-29T06:24:05;97529.66;;;11.66;100.00
28306;BME280;7516;43.570;1.448;2024-03-29T06:26:33;97533.19;;;11.72;100.00
28306;BME280;7516;43.570;1.448;2024-03-29T06:29:01;97538.44;;;11.72;100.00
28306;BME280;7516;43.570;1.448;2024-03-29T06:31:28;97546.06;;;11.73;100.00
28306;BME280;7516;43.570;1.448;2024-03-29T06:33:56;97543.03;;;11.76;100.00
28306;BME280;7516;43.570;1.448;2024-03-29T06:36:24;97548.34;;;11.81;100.00
28306;BME280;7516;43.570;1.448;2024-03-29T06:38:54;97547.91;;;11.84;100.00
28306;BME280;7516;43.570;1.448;2024-03-29T06:41:21;97553.59;;;11.81;100.00
28306;BME280;7516;43.570;1.448;2024-03-29T06:43:49;97539.81;;;11.86;100.00
28306;BME280;7516;43.570;1.448;2024-03-29T06:46:16;97527.91;;;11.95;100.00
28306;BME280;7516;43.570;1.448;2024-03-29T06:48:44;97522.97;;;11.98;100.00
28306;BME280;7516;43.570;1.448;2024-03-29T06:51:12;97535.06;;;11.99;100.00
28306;BME280;7516;43.570;1.448;2024-03-29T06:53:40;97531.88;;;12.14;100.00
28306;BME280;7516;43.570;1.448;2024-03-29T06:56:08;97536.22;;;12.20;100.00
28306;BME280;7516;43.570;1.448;2024-03-29T06:58:37;97536.13;;;12.32;100.00
28306;BME280;7516;43.570;1.448;2024-03-29T07:01:04;97544.13;;;12.37;100.00
28306;BME280;7516;43.570;1.448;2024-03-29T07:03:32;97542.28;;;12.37;100.00
28306;BME280;7516;43.570;1.448;2024-03-29T07:05:59;97546.28;;;12.40;100.00
28306;BME280;7516;43.570;1.448;2024-03-29T07:08:27;97543.09;;;12.38;100.00
28306;BME280;7516;43.570;1.448;2024-03-29T07:11:00;97543.56;;;12.35;98.69
28306;BME280;7516;43.570;1.448;2024-03-29T07:13:30;97557.91;;;12.44;98.64
28306;BME280;7516;43.570;1.448;2024-03-29T07:15:58;97569.53;;;12.48;98.57
28306;BME280;7516;43.570;1.448;2024-03-29T07:18:26;97566.50;;;12.56;98.70
28306;BME280;7516;43.570;1.448;2024-03-29T07:20:53;97554.31;;;12.50;97.61
28306;BME280;7516;43.570;1.448;2024-03-29T07:23:21;97553.91;;;12.58;99.05
28306;BME280;7516;43.570;1.448;2024-03-29T07:25:58;97556.06;;;12.61;98.70
28306;BME280;7516;43.570;1.448;2024-03-29T07:28:26;97546.94;;;12.64;98.67
28306;BME280;7516;43.570;1.448;2024-03-29T07:30:55;97534.81;;;12.63;98.38
28306;BME280;7516;43.570;1.448;2024-03-29T07:33:23;97542.47;;;12.64;98.05
28306;BME280;7516;43.570;1.448;2024-03-29T07:35:52;97533.06;;;12.68;97.89
28306;BME280;7516;43.570;1.448;2024-03-29T07:38:20;97539.22;;;12.74;97.55
28306;BME280;7516;43.570;1.448;2024-03-29T07:40:48;97534.97;;;12.73;97.63
28306;BME280;7516;43.570;1.448;2024-03-29T07:43:16;97527.34;;;12.71;97.62
28306;BME280;7516;43.570;1.448;2024-03-29T07:45:44;97521.59;;;12.74;97.19
28306;BME280;7516;43.570;1.448;2024-03-29T07:48:14;97508.47;;;12.74;97.46
28306;BME280;7516;43.570;1.448;2024-03-29T07:50:43;97495.31;;;12.74;98.44
28306;BME280;7516;43.570;1.448;2024-03-29T07:53:11;97500.09;;;12.77;99.02
28306;BME280;7516;43.570;1.448;2024-03-29T07:55:40;97498.00;;;12.79;98.62
28306;BME280;7516;43.570;1.448;2024-03-29T07:58:08;97504.63;;;12.82;98.82
28306;BME280;7516;43.570;1.448;2024-03-29T08:00:40;97511.22;;;12.85;98.62
28306;BME280;7516;43.570;1.448;2024-03-29T08:03:08;97524.94;;;12.87;98.54
28306;BME280;7516;43.570;1.448;2024-03-29T08:05:37;97527.88;;;12.90;98.42
28306;BME280;7516;43.570;1.448;2024-03-29T08:08:06;97528.56;;;13.02;98.86
28306;BME280;7516;43.570;1.448;2024-03-29T08:10:34;97535.59;;;12.97;97.68
28306;BME280;7516;43.570;1.448;2024-03-29T08:13:02;97540.38;;;13.00;98.26
28306;BME280;7516;43.570;1.448;2024-03-29T08:15:33;97543.88;;;13.05;96.94
28306;BME280;7516;43.570;1.448;2024-03-29T08:18:00;97551.75;;;13.05;96.45
28306;BME280;7516;43.570;1.448;2024-03-29T08:20:28;97553.53;;;13.00;96.12
28306;BME280;7516;43.570;1.448;2024-03-29T08:22:59;97542.69;;;12.96;95.08
28306;BME280;7516;43.570;1.448;2024-03-29T08:25:27;97547.47;;;12.99;96.21
28306;BME280;7516;43.570;1.448;2024-03-29T08:27:55;97545.94;;;13.03;96.77
28306;BME280;7516;43.570;1.448;2024-03-29T08:30:24;97547.34;;;13.11;97.01
28306;BME280;7516;43.570;1.448;2024-03-29T08:32:52;97546.09;;;13.13;96.59
28306;BME280;7516;43.570;1.448;2024-03-29T08:35:20;97529.50;;;13.13;96.60
28306;BME280;7516;43.570;1.448;2024-03-29T08:37:48;97530.66;;;13.17;97.08
28306;BME280;7516;43.570;1.448;2024-03-29T08:40:17;97526.00;;;13.24;97.30
28306;BME280;7516;43.570;1.448;2024-03-29T08:42:45;97530.91;;;13.37;96.84
28306;BME280;7516;43.570;1.448;2024-03-29T08:45:12;97526.19;;;13.39;97.30
28306;BME280;7516;43.570;1.448;2024-03-29T08:47:40;97520.81;;;13.51;97.37
28306;BME280;7516;43.570;1.448;2024-03-29T08:50:08;97527.28;;;13.65;96.29
28306;BME280;7516;43.570;1.448;2024-03-29T08:52:36;97530.88;;;13.81;95.08
28306;BME280;7516;43.570;1.448;2024-03-29T08:55:05;97537.88;;;13.92;94.77
28306;BME280;7516;43.570;1.448;2024-03-29T08:57:34;97536.38;;;14.01;93.26
28306;BME280;7516;43.570;1.448;2024-03-29T09:00:02;97529.03;;;14.03;92.46
28306;BME280;7516;43.570;1.448;2024-03-29T09:02:31;97538.09;;;14.12;90.69
28306;BME280;7516;43.570;1.448;2024-03-29T09:04:58;97530.22;;;14.17;91.71
28306;BME280;7516;43.570;1.448;2024-03-29T09:07:26;97545.06;;;14.23;89.80
28306;BME280;7516;43.570;1.448;2024-03-29T09:09:53;97543.03;;;14.36;90.33
28306;BME280;7516;43.570;1.448;2024-03-29T09:12:20;97553.47;;;14.47;89.45
28306;BME280;7516;43.570;1.448;2024-03-29T09:14:49;97557.47;;;14.55;88.73
28306;BME280;7516;43.570;1.448;2024-03-29T09:17:18;97552.53;;;14.63;89.01
28306;BME280;7516;43.570;1.448;2024-03-29T09:19:50;97544.97;;;14.72;89.62
28306;BME280;7516;43.570;1.448;2024-03-29T09:22:18;97534.97;;;14.79;88.44
28306;BME280;7516;43.570;1.448;2024-03-29T09:24:45;97530.03;;;14.88;89.23
28306;BME280;7516;43.570;1.448;2024-03-29T09:27:13;97535.13;;;14.94;88.35
28306;BME280;7516;43.570;1.448;2024-03-29T09:29:40;97531.72;;;15.04;87.23
28306;BME280;7516;43.570;1.448;2024-03-29T09:32:10;97540.53;;;15.20;86.47
28306;BME280;7516;43.570;1.448;2024-03-29T09:34:37;97539.53;;;15.31;87.33
28306;BME280;7516;43.570;1.448;2024-03-29T09:37:05;97537.75;;;15.41;87.50
28306;BME280;7516;43.570;1.448;2024-03-29T09:39:32;97534.09;;;15.53;87.73
28306;BME280;7516;43.570;1.448;2024-03-29T09:42:02;97509.63;;;15.62;89.34
28306;BME280;7516;43.570;1.448;2024-03-29T09:44:32;97511.78;;;15.80;88.71
28306;BME280;7516;43.570;1.448;2024-03-29T09:47:03;97507.03;;;15.83;89.42
28306;BME280;7516;43.570;1.448;2024-03-29T09:49:33;97497.00;;;15.85;89.28
28306;BME280;7516;43.570;1.448;2024-03-29T09:52:01;97504.91;;;15.85;89.08
28306;BME280;7516;43.570;1.448;2024-03-29T09:54:29;97498.03;;;15.84;89.96
28306;BME280;7516;43.570;1.448;2024-03-29T09:56:57;97504.94;;;15.90;89.17
28306;BME280;7516;43.570;1.448;2024-03-29T09:59:25;97501.00;;;16.02;89.37
28306;BME280;7516;43.570;1.448;2024-03-29T10:01:56;97499.69;;;16.10;89.29
28306;BME280;7516;43.570;1.448;2024-03-29T10:04:25;97495.75;;;16.17;89.14
28306;BME280;7516;43.570;1.448;2024-03-29T10:06:54;97496.28;;;16.25;89.46
28306;BME280;7516;43.570;1.448;2024-03-29T10:09:23;97510.03;;;16.32;89.31
28306;BME280;7516;43.570;1.448;2024-03-29T10:11:55;97504.50;;;16.43;89.61
28306;BME280;7516;43.570;1.448;2024-03-29T10:14:23;97497.59;;;16.58;89.10
28306;BME280;7516;43.570;1.448;2024-03-29T10:16:51;97499.47;;;16.77;85.94
28306;BME280;7516;43.570;1.448;2024-03-29T10:19:19;97482.53;;;16.83;84.85
28306;BME280;7516;43.570;1.448;2024-03-29T10:21:47;97494.41;;;16.96;85.23
28306;BME280;7516;43.570;1.448;2024-03-29T10:24:16;97494.41;;;17.06;84.69
28306;BME280;7516;43.570;1.448;2024-03-29T10:26:44;97485.63;;;17.21;83.15
28306;BME280;7516;43.570;1.448;2024-03-29T10:29:11;97476.63;;;17.22;84.19
28306;BME280;7516;43.570;1.448;2024-03-29T10:31:41;97476.59;;;17.27;83.52
28306;BME280;7516;43.570;1.448;2024-03-29T10:34:10;97482.09;;;17.41;81.16
28306;BME280;7516;43.570;1.448;2024-03-29T10:36:37;97471.53;;;17.36;79.22
28306;BME280;7516;43.570;1.448;2024-03-29T10:39:10;97472.75;;;17.58;79.09
28306;BME280;7516;43.570;1.448;2024-03-29T10:41:41;97471.41;;;17.61;79.00
28306;BME280;7516;43.570;1.448;2024-03-29T10:44:10;97474.88;;;17.66;79.57
28306;BME280;7516;43.570;1.448;2024-03-29T10:46:40;97473.22;;;17.76;75.55
28306;BME280;7516;43.570;1.448;2024-03-29T10:49:08;97471.38;;;17.71;70.02
28306;BME280;7516;43.570;1.448;2024-03-29T10:51:39;97464.97;;;17.82;74.01
28306;BME280;7516;43.570;1.448;2024-03-29T10:54:08;97466.50;;;17.93;73.57
28306;BME280;7516;43.570;1.448;2024-03-29T10:56:36;97466.38;;;18.09;74.02
28306;BME280;7516;43.570;1.448;2024-03-29T10:59:10;97455.41;;;18.25;72.80
28306;BME280;7516;43.570;1.448;2024-03-29T11:01:45;97461.34;;;18.41;72.56
28306;BME280;7516;43.570;1.448;2024-03-29T11:04:22;97457.13;;;18.40;70.39
28306;BME280;7516;43.570;1.448;2024-03-29T11:06:52;97452.84;;;18.44;68.91
28306;BME280;7516;43.570;1.448;2024-03-29T11:09:23;97440.00;;;18.56;70.35
28306;BME280;7516;43.570;1.448;2024-03-29T11:11:56;97436.13;;;18.77;69.68
28306;BME280;7516;43.570;1.448;2024-03-29T11:14:29;97444.63;;;18.74;68.77
28306;BME280;7516;43.570;1.448;2024-03-29T11:16:59;97452.84;;;18.78;69.42
28306;BME280;7516;43.570;1.448;2024-03-29T11:19:27;97450.91;;;18.84;68.60
28306;BME280;7516;43.570;1.448;2024-03-29T11:21:55;97454.16;;;19.04;69.12
28306;BME280;7516;43.570;1.448;2024-03-29T11:24:23;97444.94;;;18.97;67.98
28306;BME280;7516;43.570;1.448;2024-03-29T11:26:52;97440.69;;;18.96;66.42
28306;BME280;7516;43.570;1.448;2024-03-29T11:29:21;97429.56;;;18.94;67.56
28306;BME280;7516;43.570;1.448;2024-03-29T11:31:56;97428.78;;;18.93;65.61
28306;BME280;7516;43.570;1.448;2024-03-29T11:34:25;97428.44;;;19.00;67.43
28306;BME280;7516;43.570;1.448;2024-03-29T11:36:52;97430.00;;;19.01;67.86
28306;BME280;7516;43.570;1.448;2024-03-29T11:39:23;97424.06;;;19.09;68.33
28306;BME280;7516;43.570;1.448;2024-03-29T11:41:51;97416.59;;;19.16;67.12
28306;BME280;7516;43.570;1.448;2024-03-29T11:44:19;97410.03;;;19.27;67.40
28306;BME280;7516;43.570;1.448;2024-03-29T11:46:49;97418.41;;;19.39;69.32
28306;BME280;7516;43.570;1.448;2024-03-29T11:49:17;97414.97;;;19.39;69.02
28306;BME280;7516;43.570;1.448;2024-03-29T11:51:44;97408.06;;;19.38;70.41
28306;BME280;7516;43.570;1.448;2024-03-29T11:54:13;97395.50;;;19.43;70.18
28306;BME280;7516;43.570;1.448;2024-03-29T11:56:43;97392.81;;;19.48;70.37
28306;BME280;7516;43.570;1.448;2024-03-29T11:59:10;97395.47;;;19.48;70.04
28306;BME280;7516;43.570;1.448;2024-03-29T12:01:39;97383.41;;;19.56;70.11
28306;BME280;7516;43.570;1.448;2024-03-29T12:04:08;97378.22;;;19.65;68.48
28306;BME280;7516;43.570;1.448;2024-03-29T12:06:36;97381.53;;;19.57;63.61
28306;BME280;7516;43.570;1.448;2024-03-29T12:09:04;97387.34;;;19.59;66.63
28306;BME280;7516;43.570;1.448;2024-03-29T12:11:32;97372.72;;;19.61;65.58
28306;BME280;7516;43.570;1.448;2024-03-29T12:14:00;97374.22;;;19.67;66.64
28306;BME280;7516;43.570;1.448;2024-03-29T12:16:27;97382.97;;;19.68;63.86
28306;BME280;7516;43.570;1.448;2024-03-29T12:18:54;97373.97;;;19.82;65.25
28306;BME280;7516;43.570;1.448;2024-03-29T12:21:24;97364.25;;;19.91;66.85
28306;BME280;7516;43.570;1.448;2024-03-29T12:23:52;97358.78;;;20.02;66.89
28306;BME280;7516;43.570;1.448;2024-03-29T12:26:20;97372.72;;;20.12;68.44
28306;BME280;7516;43.570;1.448;2024-03-29T12:28:49;97365.50;;;20.13;69.24
28306;BME280;7516;43.570;1.448;2024-03-29T12:31:17;97366.63;;;20.25;67.14
28306;BME280;7516;43.570;1.448;2024-03-29T12:33:51;97377.13;;;20.36;65.87
28306;BME280;7516;43.570;1.448;2024-03-29T12:36:23;97369.25;;;20.44;66.20
28306;BME280;7516;43.570;1.448;2024-03-29T12:38:54;97371.34;;;20.28;61.94
28306;BME280;7516;43.570;1.448;2024-03-29T12:41:29;97365.91;;;20.39;62.52
28306;BME280;7516;43.570;1.448;2024-03-29T12:43:57;97360.69;;;20.61;62.46
28306;BME280;7516;43.570;1.448;2024-03-29T12:46:24;97362.56;;;20.74;63.48
28306;BME280;7516;43.570;1.448;2024-03-29T12:48:58;97362.97;;;20.81;63.60
28306;BME280;7516;43.570;1.448;2024-03-29T12:51:27;97358.53;;;20.90;63.62
28306;BME280;7516;43.570;1.448;2024-03-29T12:53:55;97369.44;;;21.02;63.63
28306;BME280;7516;43.570;1.448;2024-03-29T12:56:26;97370.31;;;21.12;63.89
28306;BME280;7516;43.570;1.448;2024-03-29T12:58:54;97369.34;;;21.08;58.65
28306;BME280;7516;43.570;1.448;2024-03-29T13:01:21;97369.94;;;21.04;61.52
28306;BME280;7516;43.570;1.448;2024-03-29T13:03:49;97361.66;;;21.20;63.52
28306;BME280;7516;43.570;1.448;2024-03-29T13:06:17;97359.56;;;21.30;64.38
28306;BME280;7516;43.570;1.448;2024-03-29T13:08:46;97356.53;;;21.37;63.12
28306;BME280;7516;43.570;1.448;2024-03-29T13:11:15;97351.56;;;21.44;64.16
28306;BME280;7516;43.570;1.448;2024-03-29T13:13:43;97349.00;;;21.39;62.99